Time;durP1;ratioP1;P1;durP2;ratioP2;P2;SDS_P1;SDS_P2;PMS_P1;PMS_P2;Temp;Humidity;BMP_temperature;BMP_pressure;BME280_temperature;BME280_humidity;BME280_pressure;Samples;Min_cycle;Max_cycle;Signal;HPM_P1;HPM_P2
2023/12/26 00:01:36;;;;;;;1.80;0.90;;;;;;;8.37;100.00;97816.41;5096535;28;20196;-72
2023/12/26 00:04:02;;;;;;;2.07;0.90;;;;;;;8.39;100.00;97811.69;5096372;28;20196;-72
2023/12/26 00:06:29;;;;;;;3.40;1.30;;;;;;;8.33;100.00;97818.63;5096437;28;20204;-72
2023/12/26 00:09:04;;;;;;;1.83;1.00;;;;;;;8.39;100.00;97812.53;5096610;28;20291;-72
2023/12/26 00:11:31;;;;;;;2.43;1.10;;;;;;;8.41;100.00;97809.66;5095309;28;20210;-72
2023/12/26 00:13:59;;;;;;;3.23;1.20;;;;;;;8.33;100.00;97809.91;5096287;28;20310;-72
2023/12/26 00:16:26;;;;;;;1.80;1.03;;;;;;;8.25;100.00;97812.78;5096235;28;20303;-72
2023/12/26 00:18:54;;;;;;;1.90;1.10;;;;;;;8.29;100.00;97806.03;5096106;28;20315;-72
2023/12/26 00:21:22;;;;;;;2.57;1.30;;;;;;;8.32;100.00;97800.34;5095920;28;20293;-72
2023/12/26 00:23:48;;;;;;;1.03;0.97;;;;;;;8.37;100.00;97801.31;5095950;28;20730;-72
2023/12/26 00:26:15;;;;;;;2.80;1.30;;;;;;;8.32;100.00;97800.34;5096354;28;20239;-72
2023/12/26 00:28:41;;;;;;;1.57;1.00;;;;;;;8.27;100.00;97793.00;5096045;28;20240;-72
2023/12/26 00:31:08;;;;;;;3.37;1.30;;;;;;;8.30;100.00;97794.41;5096041;28;20207;-72
2023/12/26 00:33:44;;;;;;;1.60;1.20;;;;;;;8.30;100.00;97797.91;5096163;28;20302;-72
2023/12/26 00:36:17;;;;;;;1.43;0.80;;;;;;;8.35;100.00;97791.94;5095852;28;20200;-72
2023/12/26 00:38:49;;;;;;;3.00;1.60;;;;;;;8.36;100.00;97801.50;5095721;28;20199;-72
2023/12/26 00:41:17;;;;;;;2.50;0.90;;;;;;;8.43;100.00;97799.66;5095724;28;20283;-72
2023/12/26 00:43:45;;;;;;;3.80;1.17;;;;;;;8.42;100.00;97792.75;5096053;28;20250;-71
2023/12/26 00:46:16;;;;;;;1.80;0.93;;;;;;;8.43;100.00;97797.84;5095968;28;20258;-72
2023/12/26 00:48:43;;;;;;;2.33;1.10;;;;;;;8.41;100.00;97791.13;5095436;28;20247;-72
2023/12/26 00:51:10;;;;;;;1.57;1.10;;;;;;;8.37;100.00;97790.72;5095850;28;20310;-72
2023/12/26 00:53:36;;;;;;;1.10;0.90;;;;;;;8.29;100.00;97793.59;5095545;28;20629;-72
2023/12/26 00:56:05;;;;;;;1.57;1.20;;;;;;;8.29;100.00;97803.41;5095888;28;20225;-72
2023/12/26 00:58:35;;;;;;;1.70;0.90;;;;;;;8.26;100.00;97806.44;5095324;28;20357;-72
2023/12/26 01:01:02;;;;;;;3.03;0.90;;;;;;;8.17;100.00;97807.69;5095036;28;20634;-72
2023/12/26 01:03:28;;;;;;;1.90;1.17;;;;;;;8.15;100.00;97799.94;5095255;28;20204;-72
2023/12/26 01:05:55;;;;;;;4.60;1.43;;;;;;;8.10;100.00;97804.25;5095678;28;20200;-72
2023/12/26 01:08:21;;;;;;;3.47;1.00;;;;;;;8.10;100.00;97801.63;5095086;28;20300;-72
2023/12/26 01:10:51;;;;;;;2.53;1.23;;;;;;;8.13;100.00;97798.53;5094119;28;20228;-72
2023/12/26 01:13:18;;;;;;;3.60;1.10;;;;;;;8.14;100.00;97818.72;5095166;28;20200;-72
2023/12/26 01:15:45;;;;;;;2.20;1.13;;;;;;;8.05;100.00;97823.41;5094998;28;20228;-72
2023/12/26 01:18:13;;;;;;;2.03;1.00;;;;;;;7.98;100.00;97827.09;5095473;28;20238;-72
2023/12/26 01:20:46;;;;;;;2.00;1.30;;;;;;;7.96;100.00;97829.94;5094793;28;20714;-72
2023/12/26 01:23:14;;;;;;;2.67;1.10;;;;;;;7.98;100.00;97821.81;5094883;28;20249;-72
2023/12/26 01:25:43;;;;;;;3.17;1.10;;;;;;;7.91;100.00;97827.13;5094858;28;20200;-72
2023/12/26 01:28:09;;;;;;;1.53;0.90;;;;;;;7.89;100.00;97833.63;5094777;28;20212;-72
2023/12/26 01:30:38;;;;;;;4.17;1.23;;;;;;;7.91;100.00;97834.22;5095057;28;20226;-72
2023/12/26 01:33:05;;;;;;;2.07;1.10;;;;;;;7.91;100.00;97827.13;5095054;28;20214;-72
2023/12/26 01:35:31;;;;;;;2.53;0.90;;;;;;;7.86;100.00;97834.03;5094718;28;20310;-72
2023/12/26 01:37:58;;;;;;;5.43;1.27;;;;;;;7.80;100.00;97832.22;5094950;28;20627;-72
2023/12/26 01:40:24;;;;;;;1.87;1.17;;;;;;;7.84;100.00;97836.09;5094486;28;20223;-72
2023/12/26 01:42:51;;;;;;;3.00;1.00;;;;;;;7.83;100.00;97845.06;5095403;28;20202;-72
2023/12/26 01:45:18;;;;;;;2.20;1.20;;;;;;;7.88;100.00;97838.09;5094909;28;20283;-72
2023/12/26 01:47:46;;;;;;;2.80;1.10;;;;;;;7.94;100.00;97839.94;5094546;28;20291;-72
2023/12/26 01:50:15;;;;;;;1.20;0.80;;;;;;;7.91;100.00;97847.47;5094628;28;20230;-72
2023/12/26 01:52:42;;;;;;;1.87;1.20;;;;;;;7.98;100.00;97850.91;5076404;28;20206;-72
2023/12/26 01:55:11;;;;;;;1.90;1.00;;;;;;;8.00;100.00;97848.88;5094530;28;20648;-72
2023/12/26 01:57:39;;;;;;;2.57;1.13;;;;;;;8.02;100.00;97857.44;5094577;28;20251;-72
2023/12/26 02:00:07;;;;;;;2.10;0.90;;;;;;;8.10;100.00;97865.16;5094150;28;20739;-72
2023/12/26 02:02:34;;;;;;;1.30;0.93;;;;;;;8.05;100.00;97863.13;5094474;28;20211;-72
2023/12/26 02:05:02;;;;;;;3.97;1.17;;;;;;;8.06;100.00;97861.28;5094447;28;20253;-72
2023/12/26 02:07:29;;;;;;;2.73;1.00;;;;;;;8.04;100.00;97863.31;5076508;28;20210;-72
2023/12/26 02:09:55;;;;;;;1.80;1.00;;;;;;;8.00;100.00;97864.75;5094238;28;20307;-72
2023/12/26 02:12:22;;;;;;;2.07;0.90;;;;;;;7.98;100.00;97856.22;5094006;28;20758;-72
2023/12/26 02:14:49;;;;;;;2.63;0.93;;;;;;;7.95;100.00;97856.63;5094310;28;20311;-72
2023/12/26 02:17:26;;;;;;;1.33;0.90;;;;;;;7.98;100.00;97864.97;5093868;28;20294;-72
2023/12/26 02:19:53;;;;;;;2.20;1.10;;;;;;;7.97;100.00;97859.88;5093791;28;20311;-72
2023/12/26 02:22:19;;;;;;;1.83;0.80;;;;;;;7.99;100.00;97857.84;5093815;28;20628;-72
2023/12/26 02:24:47;;;;;;;2.30;1.10;;;;;;;7.93;100.00;97872.72;5094083;28;20285;-72
2023/12/26 02:27:18;;;;;;;1.60;1.17;;;;;;;7.97;100.00;97870.47;5094084;28;20244;-72
2023/12/26 02:29:47;;;;;;;2.30;0.97;;;;;;;7.97;100.00;97865.97;5094017;28;20255;-72
2023/12/26 02:32:17;;;;;;;2.20;1.23;;;;;;;7.96;100.00;97871.50;5093616;28;20295;-72
2023/12/26 02:34:43;;;;;;;1.57;1.23;;;;;;;7.90;100.00;97873.13;5093914;28;20226;-72
2023/12/26 02:37:10;;;;;;;1.10;0.83;;;;;;;7.89;100.00;97876.81;5075987;28;20292;-72
2023/12/26 02:39:36;;;;;;;3.63;0.90;;;;;;;7.90;100.00;97877.59;5093911;28;20314;-72
2023/12/26 02:42:03;;;;;;;1.87;1.13;;;;;;;7.89;100.00;97883.91;5093582;28;20296;-72
2023/12/26 02:44:29;;;;;;;3.17;0.90;;;;;;;7.87;100.00;97873.53;5093840;28;20299;-72
2023/12/26 02:46:55;;;;;;;1.73;1.00;;;;;;;7.83;100.00;97888.19;5093757;28;20288;-72
2023/12/26 02:49:22;;;;;;;2.63;1.10;;;;;;;7.92;100.00;97888.81;5093266;28;20232;-72
2023/12/26 02:51:48;;;;;;;2.83;1.10;;;;;;;7.89;100.00;97882.09;5093466;28;20670;-72
2023/12/26 02:54:15;;;;;;;2.17;0.90;;;;;;;7.90;100.00;97886.38;5093282;28;20296;-72
2023/12/26 02:56:41;;;;;;;2.57;0.97;;;;;;;7.96;100.00;97890.81;5093672;28;20287;-72
2023/12/26 02:59:07;;;;;;;1.27;1.00;;;;;;;7.99;100.00;97898.38;5093140;28;20307;-72
2023/12/26 03:01:34;;;;;;;2.30;0.80;;;;;;;8.08;100.00;97891.00;5093578;28;20290;-72
2023/12/26 03:04:00;;;;;;;1.50;1.00;;;;;;;8.15;100.00;97894.47;5093275;28;20755;-72
2023/12/26 03:06:27;;;;;;;2.30;1.00;;;;;;;8.12;100.00;97890.41;5093609;28;20206;-72
2023/12/26 03:08:53;;;;;;;1.03;0.90;;;;;;;8.13;100.00;97886.72;5093133;28;20758;-72
2023/12/26 03:11:19;;;;;;;0.83;0.77;;;;;;;8.17;100.00;97889.75;5093561;28;20292;-72
2023/12/26 03:13:46;;;;;;;0.80;0.80;;;;;;;8.12;100.00;97893.06;5094170;28;20290;-72
2023/12/26 03:16:12;;;;;;;1.30;0.87;;;;;;;8.15;100.00;97894.47;5092976;28;20315;-72
2023/12/26 03:18:39;;;;;;;2.47;1.07;;;;;;;8.14;100.00;97892.84;5093426;28;20298;-72
2023/12/26 03:21:05;;;;;;;1.13;1.10;;;;;;;8.05;100.00;97894.88;5093279;28;20311;-72
2023/12/26 03:23:31;;;;;;;1.13;0.90;;;;;;;8.06;100.00;97885.91;5093419;28;20290;-72
2023/12/26 03:25:58;;;;;;;1.63;0.80;;;;;;;7.99;100.00;97892.25;5092971;28;20204;-72
2023/12/26 03:28:24;;;;;;;2.03;1.00;;;;;;;7.93;100.00;97891.25;5093313;28;20204;-72
2023/12/26 03:30:51;;;;;;;3.17;1.23;;;;;;;7.88;100.00;97891.03;5093273;28;20315;-72
2023/12/26 03:33:17;;;;;;;2.17;1.20;;;;;;;7.94;100.00;97892.88;5093335;28;20282;-72
2023/12/26 03:35:44;;;;;;;2.23;0.80;;;;;;;7.95;100.00;97891.03;5095990;28;20220;-72
2023/12/26 03:38:10;;;;;;;2.13;0.93;;;;;;;7.96;100.00;97895.31;5097303;28;20287;-72
2023/12/26 03:40:37;;;;;;;2.80;0.90;;;;;;;7.90;100.00;97888.19;5097137;28;20314;-72
2023/12/26 03:43:03;;;;;;;3.07;1.17;;;;;;;7.87;100.00;97907.94;5096826;28;20290;-72
2023/12/26 03:45:30;;;;;;;1.27;1.03;;;;;;;7.85;100.00;97899.41;5097133;28;20287;-72
2023/12/26 03:47:56;;;;;;;0.80;0.80;;;;;;;7.87;100.00;97904.50;5096817;28;20303;-72
2023/12/26 03:50:24;;;;;;;1.37;1.00;;;;;;;7.79;100.00;97897.56;5096903;28;20627;-72
2023/12/26 03:52:50;;;;;;;1.37;1.00;;;;;;;7.81;100.00;97910.59;5096887;28;20203;-72
2023/12/26 03:55:16;;;;;;;1.47;0.80;;;;;;;7.78;100.00;97898.59;5097108;28;20231;-72
2023/12/26 03:57:43;;;;;;;1.80;0.80;;;;;;;7.73;100.00;97901.03;5096576;28;20290;-72
2023/12/26 04:00:10;;;;;;;3.87;1.00;;;;;;;7.84;100.00;97903.06;5096469;28;20758;-72
2023/12/26 04:02:37;;;;;;;2.07;1.03;;;;;;;7.92;100.00;97902.84;5097379;28;20290;-72
2023/12/26 04:05:03;;;;;;;1.53;0.93;;;;;;;7.94;100.00;97905.28;5096771;28;20204;-72
2023/12/26 04:07:30;;;;;;;3.10;1.17;;;;;;;7.98;100.00;97893.28;5096614;28;20286;-72
2023/12/26 04:09:56;;;;;;;2.93;1.17;;;;;;;8.19;100.00;97893.03;5095983;28;20573;-72
2023/12/26 04:12:23;;;;;;;2.23;0.93;;;;;;;8.26;100.00;97891.19;5096361;28;20299;-72
2023/12/26 04:14:49;;;;;;;2.03;1.00;;;;;;;8.31;100.00;97892.22;5096233;28;20286;-72
2023/12/26 04:17:17;;;;;;;2.07;1.00;;;;;;;8.30;100.00;97895.06;5095971;28;20299;-72
2023/12/26 04:19:44;;;;;;;1.20;1.10;;;;;;;8.35;100.00;97895.25;5095875;28;20222;-72
2023/12/26 04:22:10;;;;;;;3.57;1.20;;;;;;;8.35;100.00;97893.41;5096347;28;20291;-72
2023/12/26 04:24:36;;;;;;;1.80;1.00;;;;;;;8.35;100.00;97892.59;5096044;28;20690;-72
2023/12/26 04:27:03;;;;;;;3.93;1.20;;;;;;;8.42;100.00;97899.50;5096316;28;20199;-72
2023/12/26 04:29:29;;;;;;;4.13;1.20;;;;;;;8.41;100.00;97902.38;5096312;28;20624;-72
2023/12/26 04:31:56;;;;;;;4.27;1.37;;;;;;;8.38;100.00;97902.78;5096288;28;20293;-72
2023/12/26 04:34:22;;;;;;;3.23;1.17;;;;;;;8.48;100.00;97903.16;5096139;28;20290;-72
2023/12/26 04:36:49;;;;;;;3.93;1.13;;;;;;;8.42;100.00;97907.44;5095967;28;20230;-72
2023/12/26 04:39:15;;;;;;;5.33;1.20;;;;;;;8.45;100.00;97912.34;5095479;28;20710;-72
2023/12/26 04:41:41;;;;;;;1.40;1.00;;;;;;;8.43;100.00;97908.28;5095882;28;20290;-72
2023/12/26 04:44:08;;;;;;;3.70;1.20;;;;;;;8.55;100.00;97922.50;5095502;28;20734;-73
2023/12/26 04:46:35;;;;;;;4.50;1.30;;;;;;;8.53;100.00;97917.41;5095155;28;20206;-73
2023/12/26 04:49:02;;;;;;;3.10;0.90;;;;;;;8.58;100.00;97922.06;5095215;28;20294;-73
2023/12/26 04:51:28;;;;;;;4.77;1.17;;;;;;;8.62;100.00;97918.81;5095560;28;20242;-73
2023/12/26 04:53:55;;;;;;;3.60;1.20;;;;;;;8.66;100.00;97911.25;5095672;28;20208;-73
2023/12/26 04:56:22;;;;;;;5.27;1.20;;;;;;;8.69;100.00;97914.28;5095788;28;20425;-73
2023/12/26 04:58:52;;;;;;;2.83;0.90;;;;;;;8.68;100.00;97923.25;5095620;28;20627;-73
2023/12/26 05:01:20;;;;;;;3.57;1.27;;;;;;;8.69;100.00;97916.13;5095508;28;20271;-73
2023/12/26 05:03:47;;;;;;;3.23;1.47;;;;;;;8.68;100.00;97922.44;5095624;28;20251;-73
2023/12/26 05:06:20;;;;;;;3.73;1.03;;;;;;;8.70;100.00;97918.56;5095312;28;20295;-73
2023/12/26 05:08:46;;;;;;;4.80;1.50;;;;;;;8.71;100.00;97920.19;5095805;28;20184;-73
2023/12/26 05:11:24;;;;;;;3.00;1.30;;;;;;;8.69;100.00;97913.47;5094615;28;20738;-72
2023/12/26 05:13:51;;;;;;;2.27;1.37;;;;;;;8.80;100.00;97916.28;5095170;28;20233;-72
2023/12/26 05:16:18;;;;;;;5.20;1.10;;;;;;;8.83;100.00;97930.94;5095197;28;20418;-73
2023/12/26 05:18:44;;;;;;;4.57;1.47;;;;;;;8.76;100.00;97922.19;5094514;28;20208;-73
2023/12/26 05:21:21;;;;;;;3.83;1.10;;;;;;;8.78;100.00;97918.31;5095116;28;20303;-73
2023/12/26 05:23:48;;;;;;;2.20;1.30;;;;;;;8.71;100.00;97912.25;5094886;28;20298;-73
2023/12/26 05:26:15;;;;;;;4.10;1.43;;;;;;;8.78;100.00;97917.53;5095297;28;20199;-72
2023/12/26 05:28:42;;;;;;;2.60;1.77;;;;;;;8.69;100.00;97914.28;5095161;28;20200;-72
2023/12/26 05:31:09;;;;;;;2.40;1.30;;;;;;;8.65;100.00;97912.28;5095151;28;20294;-72
2023/12/26 05:33:35;;;;;;;5.57;1.33;;;;;;;8.64;100.00;97908.00;5095120;28;20211;-72
2023/12/26 05:36:02;;;;;;;3.43;1.60;;;;;;;8.70;100.00;97921.22;5094853;28;20330;-72
2023/12/26 05:38:29;;;;;;;2.40;1.10;;;;;;;8.66;100.00;97917.38;5094728;28;20291;-72
2023/12/26 05:40:56;;;;;;;3.50;1.40;;;;;;;8.67;100.00;97920.81;5094379;28;20781;-72
2023/12/26 05:43:23;;;;;;;5.50;1.50;;;;;;;8.65;100.00;97925.50;5094604;28;20290;-72
2023/12/26 05:45:49;;;;;;;5.37;1.60;;;;;;;8.69;100.00;97929.38;5094428;28;20232;-71
2023/12/26 05:48:15;;;;;;;4.17;1.30;;;;;;;8.65;100.00;97925.50;5093791;28;20307;-71
2023/12/26 05:50:42;;;;;;;4.63;1.50;;;;;;;8.79;100.00;97919.94;5093386;28;20633;-71
2023/12/26 05:53:08;;;;;;;3.50;1.40;;;;;;;8.79;100.00;97932.38;5093696;28;20294;-71
2023/12/26 05:55:35;;;;;;;4.33;1.43;;;;;;;8.82;100.00;97935.44;5093751;28;20312;-71
2023/12/26 05:58:01;;;;;;;4.90;1.37;;;;;;;8.84;100.00;97936.03;5093073;28;20320;-71
2023/12/26 06:00:28;;;;;;;3.40;1.40;;;;;;;8.83;100.00;97947.66;5093753;28;20251;-71
2023/12/26 06:02:54;;;;;;;4.23;1.40;;;;;;;8.86;100.00;97941.13;5093665;28;20211;-72
2023/12/26 06:05:21;;;;;;;3.73;1.40;;;;;;;8.81;100.00;97940.94;5093222;28;20667;-72
2023/12/26 06:07:47;;;;;;;6.23;1.40;;;;;;;8.80;100.00;97953.38;5093163;28;20732;-72
2023/12/26 06:10:14;;;;;;;4.93;1.53;;;;;;;8.65;100.00;97952.03;5093332;28;20319;-71
2023/12/26 06:12:40;;;;;;;5.13;1.53;;;;;;;8.78;100.00;97947.47;5093010;28;20666;-71
2023/12/26 06:15:07;;;;;;;3.17;1.30;;;;;;;8.72;100.00;97960.75;5093385;28;20310;-72
2023/12/26 06:17:34;;;;;;;3.57;1.30;;;;;;;8.70;100.00;97949.56;5093068;28;20298;-72
2023/12/26 06:20:01;;;;;;;3.93;1.37;;;;;;;8.67;100.00;97949.97;5093276;28;20257;-73
2023/12/26 06:22:27;;;;;;;6.47;1.37;;;;;;;8.77;100.00;97950.31;5093273;28;20298;-72
2023/12/26 06:24:53;;;;;;;4.43;1.30;;;;;;;8.77;100.00;97950.31;5092961;28;20766;-72
2023/12/26 06:27:20;;;;;;;2.90;1.33;;;;;;;8.81;100.00;97948.88;5094115;28;20295;-72
2023/12/26 06:29:46;;;;;;;1.93;1.10;;;;;;;8.82;100.00;97950.53;5093176;28;20314;-72
2023/12/26 06:32:13;;;;;;;2.83;1.50;;;;;;;8.80;100.00;97960.50;5092874;28;20250;-72
2023/12/26 06:34:39;;;;;;;3.97;1.33;;;;;;;8.83;100.00;97957.47;5093245;28;20295;-72
2023/12/26 06:37:05;;;;;;;4.13;1.30;;;;;;;8.80;100.00;97965.81;5093664;28;20365;-71
2023/12/26 06:39:32;;;;;;;3.20;1.43;;;;;;;8.83;100.00;97962.75;5092742;28;20310;-71
2023/12/26 06:41:58;;;;;;;5.63;1.47;;;;;;;8.82;100.00;97950.53;5092555;28;20208;-71
2023/12/26 06:44:25;;;;;;;3.20;1.70;;;;;;;8.78;100.00;97962.56;5092769;28;20295;-72
2023/12/26 06:46:51;;;;;;;3.10;1.30;;;;;;;8.74;100.00;97953.41;5092903;28;20291;-72
2023/12/26 06:49:18;;;;;;;5.77;1.50;;;;;;;8.75;100.00;97955.84;5024733;28;1952092;-72
2023/12/26 06:51:46;;;;;;;2.93;1.23;;;;;;;8.76;100.00;97956.66;5093325;28;20207;-72
2023/12/26 06:54:12;;;;;;;4.47;1.43;;;;;;;8.80;100.00;97952.56;5093371;28;20200;-72
2023/12/26 06:56:39;;;;;;;4.23;1.60;;;;;;;8.70;100.00;97949.56;5093548;28;20321;-72
2023/12/26 06:59:05;;;;;;;4.47;1.47;;;;;;;8.74;100.00;97958.72;5093688;28;20314;-71
2023/12/26 07:01:33;;;;;;;3.70;1.50;;;;;;;8.81;100.00;97954.19;5093438;28;20765;-71
2023/12/26 07:04:00;;;;;;;4.50;1.40;;;;;;;8.74;100.00;97964.00;5093578;28;20200;-72
2023/12/26 07:06:27;;;;;;;5.70;1.30;;;;;;;8.70;100.00;97966.28;5093507;28;20245;-72
2023/12/26 07:08:53;;;;;;;4.07;1.20;;;;;;;8.63;100.00;97984.03;5092285;28;20300;-72
2023/12/26 07:11:20;;;;;;;6.40;1.40;;;;;;;8.62;100.00;97992.19;5093003;28;20243;-72
2023/12/26 07:13:46;;;;;;;4.70;1.43;;;;;;;8.61;100.00;97988.72;5093294;28;20295;-72
2023/12/26 07:16:13;;;;;;;4.83;1.30;;;;;;;8.66;100.00;97991.56;5093281;28;20310;-72
2023/12/26 07:18:39;;;;;;;3.47;1.57;;;;;;;8.62;100.00;97998.28;5092977;28;20735;-72
2023/12/26 07:21:05;;;;;;;3.70;1.37;;;;;;;8.56;100.00;97993.00;5093499;28;20323;-72
2023/12/26 07:23:32;;;;;;;2.73;1.30;;;;;;;8.53;100.00;97996.06;5093356;28;20298;-72
2023/12/26 07:25:58;;;;;;;5.30;1.50;;;;;;;8.56;100.00;98011.56;5093075;28;20294;-71
2023/12/26 07:28:25;;;;;;;6.27;1.33;;;;;;;8.59;100.00;98024.38;5093271;28;20294;-71
2023/12/26 07:30:51;;;;;;;5.10;1.43;;;;;;;8.59;100.00;98024.38;5093210;28;20319;-71
2023/12/26 07:33:17;;;;;;;6.27;1.60;;;;;;;8.60;100.00;98032.13;5091162;28;20573;-71
2023/12/26 07:35:45;;;;;;;5.20;1.60;;;;;;;8.56;100.00;98030.91;5092590;28;20299;-71
2023/12/26 07:38:11;;;;;;;3.20;1.23;;;;;;;8.56;100.00;98028.25;5093094;28;20199;-71
2023/12/26 07:40:39;;;;;;;4.60;1.33;;;;;;;8.48;100.00;98033.78;5092794;28;20806;-71
2023/12/26 07:43:06;;;;;;;5.13;1.53;;;;;;;8.47;100.00;98039.28;5091919;28;20222;-71
2023/12/26 07:45:32;;;;;;;3.47;1.20;;;;;;;8.53;100.00;98051.72;5092910;28;20294;-71
2023/12/26 07:47:58;;;;;;;3.50;1.40;;;;;;;8.49;100.00;98047.84;5092634;28;20650;-71
2023/12/26 07:50:25;;;;;;;3.60;1.53;;;;;;;8.55;100.00;98061.06;5092841;28;20319;-71
2023/12/26 07:52:51;;;;;;;3.33;1.50;;;;;;;8.58;100.00;98059.84;5092630;28;20631;-71
2023/12/26 07:55:17;;;;;;;3.77;1.50;;;;;;;8.59;100.00;98072.91;5091291;28;20207;-71
2023/12/26 07:57:44;;;;;;;3.77;1.73;;;;;;;8.52;100.00;98074.75;5092141;28;20223;-71
2023/12/26 08:00:11;;;;;;;2.90;1.13;;;;;;;8.60;100.00;98071.88;5091954;28;20318;-71
2023/12/26 08:02:37;;;;;;;4.17;1.50;;;;;;;8.57;100.00;98082.06;5092569;28;20213;-71
2023/12/26 08:05:04;;;;;;;6.13;1.50;;;;;;;8.57;100.00;98072.31;5092930;28;20307;-71
2023/12/26 08:07:30;;;;;;;3.17;1.30;;;;;;;8.68;100.00;98078.78;5092950;28;20290;-72
2023/12/26 08:09:57;;;;;;;8.10;1.80;;;;;;;8.69;100.00;98081.22;5092645;28;20255;-72
2023/12/26 08:12:23;;;;;;;6.30;1.90;;;;;;;8.76;100.00;98082.06;5091411;28;20294;-72
2023/12/26 08:14:50;;;;;;;3.77;1.37;;;;;;;8.84;100.00;98079.19;5082933;28;20288;-72
2023/12/26 08:17:16;;;;;;;6.50;2.10;;;;;;;8.80;100.00;98079.78;5092155;28;20307;-72
2023/12/26 08:19:43;;;;;;;3.23;1.40;;;;;;;8.83;100.00;98082.03;5092675;28;20310;-72
2023/12/26 08:22:09;;;;;;;2.80;1.13;;;;;;;8.86;100.00;98085.09;5096454;28;20291;-72
2023/12/26 08:24:36;;;;;;;3.60;1.30;;;;;;;8.89;100.00;98086.50;5096156;28;20603;-72
2023/12/26 08:27:02;;;;;;;5.40;1.60;;;;;;;8.84;100.00;98083.66;5096271;28;20290;-72
2023/12/26 08:29:29;;;;;;;5.80;1.60;;;;;;;8.84;100.00;98091.63;5096242;28;20364;-72
2023/12/26 08:31:55;;;;;;;6.43;1.40;;;;;;;8.84;100.00;98088.97;5096262;28;20290;-72
2023/12/26 08:34:23;;;;;;;4.53;1.50;;;;;;;8.89;100.00;98095.28;5096111;28;20629;-72
2023/12/26 08:36:49;;;;;;;3.17;1.10;;;;;;;8.97;100.00;98096.91;5095915;28;20220;-72
2023/12/26 08:39:15;;;;;;;4.03;1.47;;;;;;;8.91;100.00;98087.94;5095876;28;20315;-72
2023/12/26 08:41:42;;;;;;;4.23;1.57;;;;;;;8.95;100.00;98099.75;5095910;28;20286;-72
2023/12/26 08:44:08;;;;;;;7.03;1.60;;;;;;;9.00;100.00;98099.16;5095489;28;20693;-72
2023/12/26 08:46:35;;;;;;;4.40;1.60;;;;;;;9.02;100.00;98113.81;5096011;28;20207;-72
2023/12/26 08:49:02;;;;;;;4.00;1.40;;;;;;;9.10;100.00;98116.22;5095338;28;20303;-72
2023/12/26 08:51:29;;;;;;;2.63;1.30;;;;;;;9.11;100.00;98120.53;5095685;28;20207;-72
2023/12/26 08:53:55;;;;;;;3.40;1.47;;;;;;;9.17;100.00;98124.16;5095487;28;20295;-72
2023/12/26 08:56:24;;;;;;;4.27;1.37;;;;;;;9.14;100.00;98121.94;5095084;28;20226;-72
2023/12/26 08:58:50;;;;;;;4.47;1.47;;;;;;;9.20;100.00;98126.41;5095561;28;20211;-72
2023/12/26 09:01:17;;;;;;;4.67;1.63;;;;;;;9.24;100.00;98135.59;5095533;28;20287;-72
2023/12/26 09:03:43;;;;;;;3.87;1.40;;;;;;;9.21;100.00;98120.91;5095127;28;20207;-72
2023/12/26 09:06:11;;;;;;;4.57;1.27;;;;;;;9.25;100.00;98132.75;5095302;28;20218;-72
2023/12/26 09:08:39;;;;;;;3.23;1.50;;;;;;;9.23;100.00;98133.97;5077418;28;20208;-72
2023/12/26 09:11:05;;;;;;;3.90;1.20;;;;;;;9.26;100.00;98141.50;5094922;28;20227;-72
2023/12/26 09:13:31;;;;;;;1.97;1.50;;;;;;;9.25;100.00;98158.44;5095372;28;20208;-72
2023/12/26 09:16:01;;;;;;;5.23;1.43;;;;;;;9.29;100.00;98154.34;5094932;28;20208;-72
2023/12/26 09:18:28;;;;;;;5.53;1.60;;;;;;;9.34;100.00;98149.22;5094961;28;20762;-72
2023/12/26 09:20:55;;;;;;;3.93;1.30;;;;;;;9.30;100.00;98163.94;5095166;28;20273;-72
2023/12/26 09:23:21;;;;;;;3.67;1.50;;;;;;;9.34;100.00;98167.81;5095256;28;20242;-72
2023/12/26 09:25:48;;;;;;;4.00;1.30;;;;;;;9.32;100.00;98165.34;5094917;28;20286;-72
2023/12/26 09:28:15;;;;;;;5.50;1.40;;;;;;;9.34;100.00;98165.97;5094585;28;20648;-72
2023/12/26 09:30:41;;;;;;;4.93;1.40;;;;;;;9.42;100.00;98168.38;5095056;28;20255;-72
2023/12/26 09:33:08;;;;;;;3.77;1.50;;;;;;;9.47;100.00;98167.78;5093922;28;20291;-72
2023/12/26 09:35:35;;;;;;;4.17;1.30;;;;;;;9.51;100.00;98168.97;5094610;28;20746;-72
2023/12/26 09:38:01;;;;;;;2.20;1.10;;;;;;;9.53;100.00;98177.53;5094549;28;20769;-72
2023/12/26 09:40:28;;;;;;;4.90;1.33;;;;;;;9.56;100.00;98183.22;5094765;28;20286;-72
2023/12/26 09:43:00;;;;;;;4.93;1.40;;;;;;;9.53;100.00;98183.66;5094629;28;20286;-72
2023/12/26 09:45:27;;;;;;;5.97;1.30;;;;;;;9.60;100.00;98189.75;5094642;28;20192;-72
2023/12/26 09:47:54;;;;;;;5.53;1.50;;;;;;;9.59;100.00;98193.44;5094223;28;20298;-72
2023/12/26 09:50:20;;;;;;;1.60;0.93;;;;;;;9.58;100.00;98191.00;5094473;28;20258;-72
2023/12/26 09:52:59;;;;;;;5.00;1.17;;;;;;;9.61;100.00;98195.88;5094344;28;20295;-72
2023/12/26 09:55:28;;;;;;;1.57;0.93;;;;;;;9.55;100.00;98196.75;5094430;28;20227;-72
2023/12/26 09:57:57;;;;;;;2.47;1.10;;;;;;;9.65;100.00;98205.06;5093809;28;20234;-72
2023/12/26 10:00:25;;;;;;;3.27;1.10;;;;;;;9.71;100.00;98212.19;5094098;28;20307;-72
2023/12/26 10:02:53;;;;;;;3.60;1.20;;;;;;;9.64;100.00;98217.50;5094228;28;20210;-72
2023/12/26 10:05:20;;;;;;;4.80;1.20;;;;;;;9.69;100.00;98222.22;5093858;28;20207;-72
2023/12/26 10:07:46;;;;;;;3.03;1.10;;;;;;;9.77;100.00;98219.34;5094037;28;20257;-72
2023/12/26 10:10:19;;;;;;;1.43;0.80;;;;;;;9.77;100.00;98217.47;5094148;28;20319;-72
2023/12/26 10:12:46;;;;;;;2.60;0.90;;;;;;;9.78;100.00;98229.72;5094263;28;20223;-72
2023/12/26 10:15:12;;;;;;;2.10;1.00;;;;;;;9.72;100.00;98230.56;5094386;28;20209;-72
2023/12/26 10:17:41;;;;;;;0.97;0.80;;;;;;;9.84;100.00;98236.03;5094195;28;20234;-72
2023/12/26 10:20:08;;;;;;;2.40;1.30;;;;;;;9.81;100.00;98231.97;5094208;28;20250;-72
2023/12/26 10:22:35;;;;;;;2.20;0.80;;;;;;;9.83;100.00;98221.94;5093772;28;20283;-72
2023/12/26 10:25:01;;;;;;;2.30;0.83;;;;;;;9.93;100.00;98218.84;5093393;28;20290;-73
2023/12/26 10:27:28;;;;;;;1.63;0.77;;;;;;;9.85;100.00;98217.25;5094060;28;20252;-73
2023/12/26 10:29:55;;;;;;;2.70;1.00;;;;;;;9.96;100.00;98213.91;5093701;28;20638;-73
2023/12/26 10:32:24;;;;;;;2.30;1.10;;;;;;;10.01;100.00;98210.66;5094166;28;20283;-72
2023/12/26 10:34:51;;;;;;;2.47;1.00;;;;;;;9.86;100.00;98204.81;5093738;28;20214;-72
2023/12/26 10:37:24;;;;;;;2.20;1.10;;;;;;;10.08;100.00;98209.63;5093881;28;20307;-76
2023/12/26 10:39:52;;;;;;;2.03;0.80;;;;;;;10.04;100.00;98203.09;5093886;28;20375;-76
2023/12/26 10:42:19;;;;;;;2.30;0.90;;;;;;;9.95;100.00;98203.50;5093193;28;20636;-76
2023/12/26 10:45:04;;;;;;;3.10;1.03;;;;;;;9.86;100.00;98210.91;5093359;28;20208;-76
2023/12/26 10:47:32;;;;;;;1.37;0.80;;;;;;;9.94;100.00;98205.38;5093102;28;20619;-76
2023/12/26 10:50:05;;;;;;;2.23;1.37;;;;;;;9.85;100.00;98221.72;5093020;28;20788;-76
2023/12/26 10:52:32;;;;;;;1.27;0.80;;;;;;;9.89;100.00;98223.78;5093322;28;20194;-77
2023/12/26 10:55:01;;;;;;;2.67;1.17;;;;;;;9.86;100.00;98221.53;5093515;28;20288;-77
2023/12/26 10:57:32;;;;;;;2.50;0.93;;;;;;;9.85;100.00;98224.38;5093254;28;20717;-76
2023/12/26 11:00:48;;;;;;;3.43;1.00;;;;;;;9.96;100.00;98226.41;5093595;28;20266;-76
2023/12/26 13:52:59;;;;;;;0.73;0.53;;;;;;;10.04;100.00;98292.53;5091212;28;20249;-76
2023/12/26 13:56:03;;;;;;;1.60;0.60;;;;;;;10.07;100.00;98298.31;5094336;28;20686;-78
2023/12/26 13:59:06;;;;;;;0.50;0.50;;;;;;;10.05;100.00;98296.88;5094243;28;20223;-77
2023/12/26 14:02:12;;;;;;;1.13;0.77;;;;;;;10.10;100.00;98281.94;5094044;28;20294;-78
2023/12/26 14:05:17;;;;;;;0.67;0.67;;;;;;;10.09;100.00;98275.00;5091706;28;20203;-77
2023/12/26 14:08:21;;;;;;;0.50;0.50;;;;;;;10.09;100.00;98298.91;5092375;28;20199;-77
2023/12/26 14:11:26;;;;;;;0.50;0.50;;;;;;;10.12;100.00;98297.66;5093817;28;20314;-77
2023/12/26 14:14:33;;;;;;;0.97;0.50;;;;;;;10.18;100.00;98297.66;5093961;28;20208;-73
2023/12/26 14:17:38;;;;;;;0.50;0.50;;;;;;;10.11;100.00;98298.69;5093852;28;20230;-73
2023/12/26 14:20:45;;;;;;;0.77;0.50;;;;;;;10.08;100.00;98309.72;5093465;28;20262;-73
2023/12/26 14:23:49;;;;;;;0.40;0.40;;;;;;;10.04;100.00;98312.00;5073143;28;20208;-73
2023/12/26 14:26:53;;;;;;;1.30;0.63;;;;;;;10.01;100.00;98309.72;5073440;28;20216;-73
2023/12/26 14:29:59;;;;;;;1.63;0.60;;;;;;;9.97;100.00;98308.53;5091279;28;20225;-73
2023/12/26 14:33:03;;;;;;;0.83;0.57;;;;;;;9.90;100.00;98320.16;5093252;28;20681;-73